Time;durP1;ratioP1;P1;durP2;ratioP2;P2;SDS_P1;SDS_P2;PMS_P1;PMS_P2;Temp;Humidity;BMP_temperature;BMP_pressure;BME280_temperature;BME280_humidity;BME280_pressure;Samples;Min_cycle;Max_cycle;Signal;HPM_P1;HPM_P2
2024/01/01 00:00:47;;;;;;;84.40;50.13;;;3.40;99.90;;;;;;6154052;23;20381;-86
2024/01/01 00:03:43;;;;;;;93.63;51.30;;;3.40;99.90;;;;;;6143989;23;20354;-86
2024/01/01 00:06:12;;;;;;;86.93;48.60;;;3.40;99.90;;;;;;6153933;23;20277;-86
2024/01/01 00:08:41;;;;;;;84.50;46.67;;;3.40;99.90;;;;;;6155393;23;20182;-87
2024/01/01 00:11:13;;;;;;;82.90;47.97;;;3.40;99.90;;;;;;6155217;23;20179;-83
2024/01/01 00:13:41;;;;;;;78.87;45.07;;;3.40;99.90;;;;;;6153165;23;20160;-85
2024/01/01 00:16:24;;;;;;;71.57;43.53;;;3.40;99.90;;;;;;6091648;23;20334;-85
2024/01/01 00:18:54;;;;;;;65.90;40.07;;;3.40;99.90;;;;;;6151529;23;20160;-86
2024/01/01 00:21:24;;;;;;;61.87;39.60;;;3.40;99.90;;;;;;6153010;23;20179;-87
2024/01/01 00:23:53;;;;;;;67.53;38.83;;;3.50;99.90;;;;;;6150482;23;20176;-84
2024/01/01 00:26:22;;;;;;;59.60;37.13;;;3.40;99.90;;;;;;6153765;23;20525;-85
2024/01/01 00:28:50;;;;;;;63.43;37.73;;;3.50;99.90;;;;;;6155178;23;20239;-85
2024/01/01 00:31:20;;;;;;;65.40;38.97;;;3.50;99.90;;;;;;6161222;23;20156;-84
2024/01/01 00:33:49;;;;;;;64.10;38.47;;;3.30;99.90;;;;;;6160119;23;20175;-84
2024/01/01 00:36:20;;;;;;;59.67;37.47;;;3.30;99.90;;;;;;6155972;23;20263;-85
2024/01/01 00:38:50;;;;;;;61.47;36.97;;;3.30;99.90;;;;;;6153356;23;20172;-87
2024/01/01 00:41:19;;;;;;;66.50;37.87;;;3.30;99.90;;;;;;6118903;23;20198;-87
2024/01/01 00:43:48;;;;;;;71.17;38.60;;;3.20;99.90;;;;;;6154653;23;20179;-86
2024/01/01 00:46:17;;;;;;;60.37;37.60;;;3.20;99.90;;;;;;6121721;23;20200;-85
2024/01/01 00:48:45;;;;;;;60.63;37.40;;;3.20;99.90;;;;;;6157183;23;20156;-87
2024/01/01 00:51:14;;;;;;;64.03;38.53;;;3.10;99.90;;;;;;6158830;23;20771;-85
2024/01/01 00:53:45;;;;;;;64.80;37.87;;;3.10;99.90;;;;;;6154247;23;20590;-84
2024/01/01 00:56:14;;;;;;;69.57;39.87;;;3.20;99.90;;;;;;6153493;23;20206;-85
2024/01/01 00:58:42;;;;;;;62.20;38.17;;;3.00;99.90;;;;;;6155863;23;20218;-84
2024/01/01 01:01:11;;;;;;;67.73;38.43;;;2.80;99.90;;;;;;6150153;23;20402;-86
2024/01/01 01:03:40;;;;;;;63.87;39.07;;;2.90;99.90;;;;;;6153544;23;20191;-86
2024/01/01 01:06:09;;;;;;;62.33;37.47;;;2.70;99.90;;;;;;6154988;23;20190;-85
2024/01/01 01:08:50;;;;;;;67.23;37.10;;;2.80;99.90;;;;;;6153841;23;20233;-86
2024/01/01 01:11:19;;;;;;;68.07;38.40;;;2.90;99.90;;;;;;6152775;23;20213;-86
2024/01/01 01:13:48;;;;;;;68.53;38.13;;;2.90;99.90;;;;;;6151966;23;20176;-87
2024/01/01 01:16:17;;;;;;;62.97;38.00;;;2.80;99.90;;;;;;6151724;23;20163;-84
2024/01/01 01:18:51;;;;;;;63.63;37.47;;;2.80;99.90;;;;;;6151603;23;20167;-85
2024/01/01 01:21:20;;;;;;;65.53;37.93;;;2.90;99.90;;;;;;6152207;23;20175;-87
2024/01/01 01:23:50;;;;;;;63.60;37.67;;;3.00;99.90;;;;;;6162419;23;20167;-88
2024/01/01 01:26:18;;;;;;;60.97;37.90;;;2.90;99.90;;;;;;6162817;23;20199;-87
2024/01/01 01:28:47;;;;;;;59.80;37.60;;;2.90;99.90;;;;;;6135144;23;20179;-84
2024/01/01 01:31:16;;;;;;;63.90;36.57;;;2.80;99.90;;;;;;6161020;23;20186;-85
2024/01/01 01:33:45;;;;;;;66.70;37.83;;;2.70;99.90;;;;;;6156308;23;20454;-85
2024/01/01 01:36:15;;;;;;;67.83;37.30;;;2.60;99.90;;;;;;6153653;23;20164;-88
2024/01/01 01:38:43;;;;;;;63.27;37.73;;;2.60;99.90;;;;;;6156165;23;20178;-83
2024/01/01 01:41:13;;;;;;;62.00;36.63;;;2.60;99.90;;;;;;6169517;23;20187;-86
2024/01/01 01:43:42;;;;;;;59.77;35.27;;;2.50;99.90;;;;;;6174153;23;20167;-87
2024/01/01 01:46:14;;;;;;;63.97;35.87;;;2.50;99.90;;;;;;6160013;23;20183;-88
2024/01/01 01:48:43;;;;;;;60.43;35.00;;;2.50;99.90;;;;;;6163860;23;20226;-86
2024/01/01 01:51:15;;;;;;;61.57;35.43;;;2.50;99.90;;;;;;6174866;23;20505;-86
2024/01/01 01:53:44;;;;;;;59.50;34.93;;;2.50;99.90;;;;;;6141659;23;20175;-86
2024/01/01 01:56:15;;;;;;;65.47;37.00;;;2.50;99.90;;;;;;6174020;23;20232;-86
2024/01/01 01:58:44;;;;;;;59.90;34.20;;;2.50;99.90;;;;;;6176077;23;20146;-86
2024/01/01 02:01:13;;;;;;;62.77;34.47;;;2.40;99.90;;;;;;6165767;23;20185;-85
2024/01/01 02:03:44;;;;;;;58.87;34.37;;;2.40;99.90;;;;;;6144879;23;20184;-86
2024/01/01 02:06:13;;;;;;;65.00;34.67;;;2.30;99.90;;;;;;6148012;23;20713;-85
2024/01/01 02:08:42;;;;;;;63.73;35.63;;;2.30;99.90;;;;;;6146098;23;21005;-84
2024/01/01 02:11:11;;;;;;;62.63;35.53;;;2.20;99.90;;;;;;6145734;23;20156;-85
2024/01/01 02:13:41;;;;;;;66.83;36.20;;;2.20;99.90;;;;;;6152812;23;20179;-85
2024/01/01 02:16:11;;;;;;;71.87;37.90;;;2.10;99.90;;;;;;6151003;23;20178;-85
2024/01/01 02:18:40;;;;;;;68.50;36.40;;;2.20;99.90;;;;;;6147421;23;20172;-86
2024/01/01 02:21:09;;;;;;;72.60;37.47;;;2.20;99.90;;;;;;6144676;23;20174;-85
2024/01/01 02:23:39;;;;;;;62.20;36.50;;;2.20;99.90;;;;;;6146575;23;20158;-84
2024/01/01 02:26:08;;;;;;;65.53;36.97;;;2.30;99.90;;;;;;6145349;23;20253;-85
2024/01/01 02:28:37;;;;;;;64.20;36.77;;;2.20;99.90;;;;;;6147351;23;20162;-85
2024/01/01 02:31:06;;;;;;;66.77;35.70;;;2.00;99.90;;;;;;6147136;23;20499;-86
2024/01/01 02:33:34;;;;;;;62.23;36.40;;;1.90;99.90;;;;;;6156237;23;20174;-85
2024/01/01 02:36:03;;;;;;;61.10;35.17;;;1.80;99.90;;;;;;6151985;23;20344;-87
2024/01/01 02:38:32;;;;;;;64.73;36.20;;;1.70;99.90;;;;;;6152547;23;20189;-86
2024/01/01 02:41:02;;;;;;;64.50;35.50;;;1.90;99.90;;;;;;6155907;23;20556;-85
2024/01/01 02:43:31;;;;;;;68.77;34.90;;;1.90;99.90;;;;;;6154521;23;20178;-84
2024/01/01 02:46:00;;;;;;;63.33;36.93;;;1.90;99.90;;;;;;6150635;23;20188;-85
2024/01/01 02:48:28;;;;;;;63.47;36.10;;;2.10;99.90;;;;;;6146513;23;20202;-83
2024/01/01 02:50:57;;;;;;;67.67;36.67;;;1.80;99.90;;;;;;6147177;23;20159;-87
2024/01/01 02:53:26;;;;;;;67.17;35.90;;;1.80;99.90;;;;;;6147882;23;20177;-85
2024/01/01 02:55:55;;;;;;;65.10;35.63;;;1.70;99.90;;;;;;6148248;23;20232;-85
2024/01/01 02:58:25;;;;;;;63.67;34.37;;;1.60;99.90;;;;;;6148287;23;20221;-88
2024/01/01 03:00:53;;;;;;;67.50;35.37;;;1.50;99.90;;;;;;6150797;23;20764;-87
2024/01/01 03:03:21;;;;;;;62.60;35.97;;;1.40;99.90;;;;;;6148792;23;20664;-85
2024/01/01 03:05:50;;;;;;;68.33;36.00;;;1.40;99.90;;;;;;6149683;23;20181;-86
2024/01/01 03:08:20;;;;;;;67.60;36.23;;;1.50;99.90;;;;;;6146937;23;20184;-83
2024/01/01 03:10:49;;;;;;;65.93;36.80;;;1.50;99.90;;;;;;6150567;23;20177;-86
2024/01/01 03:13:18;;;;;;;68.03;36.50;;;1.40;99.90;;;;;;6149381;23;20196;-86
2024/01/01 03:15:48;;;;;;;67.93;36.63;;;1.40;99.90;;;;;;6148653;23;20640;-84
2024/01/01 03:18:17;;;;;;;74.77;37.57;;;1.40;99.90;;;;;;6149001;23;20190;-86
2024/01/01 03:20:46;;;;;;;76.67;37.13;;;1.30;99.90;;;;;;6152831;23;20179;-88
2024/01/01 03:23:15;;;;;;;75.47;38.03;;;1.10;99.90;;;;;;6149188;23;20577;-85
2024/01/01 03:25:45;;;;;;;77.73;41.77;;;1.10;99.90;;;;;;6156548;23;20181;-87
2024/01/01 03:28:13;;;;;;;74.63;38.93;;;1.10;99.90;;;;;;6122946;23;20955;-83
2024/01/01 03:30:42;;;;;;;70.10;36.17;;;1.40;99.90;;;;;;6149748;23;20174;-85
2024/01/01 03:33:12;;;;;;;70.43;38.00;;;1.50;99.90;;;;;;6146012;23;20159;-84
2024/01/01 03:35:45;;;;;;;71.63;36.13;;;1.60;99.90;;;;;;6149005;23;20204;-85
2024/01/01 03:38:13;;;;;;;79.90;40.80;;;1.30;99.90;;;;;;6146442;23;20162;-86
2024/01/01 03:40:42;;;;;;;78.27;39.20;;;1.40;99.90;;;;;;6146834;23;20232;-86
2024/01/01 03:43:10;;;;;;;93.13;46.13;;;1.40;99.90;;;;;;6145327;23;20181;-86
2024/01/01 03:45:41;;;;;;;93.37;46.20;;;1.40;99.90;;;;;;6154948;23;20446;-85
2024/01/01 03:48:12;;;;;;;89.37;43.50;;;1.40;99.90;;;;;;6167011;23;20196;-85
2024/01/01 03:50:44;;;;;;;78.53;39.77;;;1.20;99.90;;;;;;6156014;23;20174;-84
2024/01/01 03:53:12;;;;;;;85.90;40.73;;;1.30;99.90;;;;;;6147651;23;20166;-86
2024/01/01 03:55:42;;;;;;;86.67;43.27;;;1.30;99.90;;;;;;6149436;23;20177;-85
2024/01/01 03:58:10;;;;;;;98.30;46.30;;;1.20;99.90;;;;;;6145419;23;20163;-86
2024/01/01 04:00:39;;;;;;;88.57;44.80;;;1.20;99.90;;;;;;6146827;23;20178;-86
2024/01/01 04:03:07;;;;;;;100.07;44.93;;;1.30;99.90;;;;;;6149131;23;20235;-86
2024/01/01 04:05:38;;;;;;;83.87;41.77;;;1.20;99.90;;;;;;6150357;23;20378;-87
2024/01/01 04:08:07;;;;;;;74.40;38.50;;;1.30;99.90;;;;;;6151617;23;20201;-83
2024/01/01 04:10:36;;;;;;;95.80;44.50;;;1.30;99.90;;;;;;6148978;23;20613;-84
2024/01/01 04:13:05;;;;;;;81.20;41.27;;;1.30;99.90;;;;;;6148344;23;20181;-87
2024/01/01 04:15:34;;;;;;;87.80;41.20;;;1.60;99.90;;;;;;6148597;23;20272;-85
2024/01/01 04:18:03;;;;;;;88.00;43.67;;;1.30;99.90;;;;;;6161746;23;20208;-84
2024/01/01 04:20:32;;;;;;;77.43;40.80;;;1.20;99.90;;;;;;6149416;23;20161;-84
2024/01/01 04:23:02;;;;;;;86.57;41.97;;;1.20;99.90;;;;;;6147937;23;20492;-85
2024/01/01 04:25:31;;;;;;;80.20;41.00;;;1.40;99.90;;;;;;6149070;23;20180;-85
2024/01/01 04:28:00;;;;;;;77.07;39.27;;;1.30;99.90;;;;;;6148670;23;20268;-86
2024/01/01 04:30:29;;;;;;;81.47;41.57;;;1.30;99.90;;;;;;6149261;23;20549;-86
2024/01/01 04:32:57;;;;;;;91.13;42.53;;;1.30;99.90;;;;;;6149647;23;20208;-83
2024/01/01 04:35:26;;;;;;;83.57;41.63;;;1.30;99.90;;;;;;6147363;23;20180;-85
2024/01/01 04:37:55;;;;;;;86.17;43.33;;;1.30;99.90;;;;;;6154733;23;20798;-84
2024/01/01 04:40:26;;;;;;;78.40;39.73;;;1.30;99.90;;;;;;6154641;23;20262;-86
2024/01/01 04:42:59;;;;;;;98.00;43.10;;;1.30;99.90;;;;;;6154542;23;20178;-83
2024/01/01 04:45:28;;;;;;;89.97;42.00;;;1.30;99.90;;;;;;6152544;23;20372;-86
2024/01/01 04:47:57;;;;;;;86.73;43.00;;;1.40;99.90;;;;;;6145765;23;20200;-86
2024/01/01 04:50:26;;;;;;;87.40;43.33;;;1.40;99.90;;;;;;6146977;23;20170;-83
2024/01/01 04:52:54;;;;;;;83.07;43.97;;;1.60;99.90;;;;;;6147088;23;20232;-84
2024/01/01 04:55:24;;;;;;;90.87;43.43;;;1.70;99.90;;;;;;6146989;23;20170;-84
2024/01/01 04:57:55;;;;;;;91.27;43.83;;;1.70;99.90;;;;;;6147868;23;20170;-84
2024/01/01 05:00:24;;;;;;;85.73;41.47;;;1.80;99.90;;;;;;6147104;23;20186;-85
2024/01/01 05:02:55;;;;;;;90.53;43.73;;;2.00;99.90;;;;;;6148386;23;20174;-84
2024/01/01 05:05:25;;;;;;;88.97;43.17;;;1.90;99.90;;;;;;6146108;23;20186;-85
2024/01/01 05:07:53;;;;;;;87.33;42.80;;;1.90;99.90;;;;;;6150513;23;20264;-86
2024/01/01 05:10:22;;;;;;;86.27;41.07;;;2.10;99.90;;;;;;6148628;23;20218;-85
2024/01/01 05:12:51;;;;;;;83.87;41.03;;;2.00;99.90;;;;;;6160522;23;20175;-85
2024/01/01 05:15:21;;;;;;;78.40;40.60;;;2.10;99.90;;;;;;6171598;23;20155;-85
2024/01/01 05:17:50;;;;;;;79.40;40.07;;;2.10;99.90;;;;;;6150797;23;20255;-84
2024/01/01 05:20:18;;;;;;;77.80;40.83;;;2.10;99.90;;;;;;6147012;23;20167;-85
2024/01/01 05:22:47;;;;;;;74.80;39.23;;;2.20;99.90;;;;;;6144485;23;20484;-85
2024/01/01 05:25:16;;;;;;;72.70;39.07;;;2.20;99.90;;;;;;6148291;23;20190;-86
2024/01/01 05:27:45;;;;;;;66.70;37.47;;;2.20;99.90;;;;;;6148717;23;20163;-85
2024/01/01 05:30:14;;;;;;;77.60;39.37;;;2.30;99.90;;;;;;6172567;23;20167;-83
2024/01/01 05:32:45;;;;;;;79.23;39.77;;;2.30;99.90;;;;;;6176321;23;20191;-85
2024/01/01 05:35:14;;;;;;;78.33;40.13;;;2.30;99.90;;;;;;6175209;23;20182;-86
2024/01/01 05:37:42;;;;;;;77.13;39.63;;;2.30;99.90;;;;;;6176998;23;20171;-85
2024/01/01 05:40:12;;;;;;;77.67;38.50;;;2.30;99.90;;;;;;6177076;23;20179;-83
2024/01/01 05:42:41;;;;;;;79.03;40.03;;;2.30;99.90;;;;;;6173600;23;20628;-86
2024/01/01 05:45:10;;;;;;;73.83;38.73;;;2.40;99.90;;;;;;6159323;23;20162;-87
2024/01/01 05:47:39;;;;;;;71.70;38.27;;;2.40;99.90;;;;;;6154125;23;20497;-86
2024/01/01 05:50:10;;;;;;;79.97;39.00;;;2.40;99.90;;;;;;6147626;23;20202;-86
2024/01/01 05:52:39;;;;;;;73.47;37.90;;;2.50;99.90;;;;;;6136192;23;20608;-87
2024/01/01 05:55:09;;;;;;;72.47;36.17;;;2.50;99.90;;;;;;6148898;23;20167;-85
2024/01/01 05:57:37;;;;;;;73.37;39.23;;;2.50;99.90;;;;;;6147950;23;20179;-84
2024/01/01 06:00:08;;;;;;;71.10;38.00;;;2.60;99.90;;;;;;6146513;23;20170;-87
2024/01/01 06:02:39;;;;;;;70.40;37.97;;;2.50;99.90;;;;;;6148788;23;20629;-87
2024/01/01 06:05:10;;;;;;;70.87;39.23;;;2.50;99.90;;;;;;6171304;23;20152;-88
2024/01/01 06:07:40;;;;;;;70.60;36.73;;;2.50;99.90;;;;;;6173460;23;20167;-85
2024/01/01 06:10:14;;;;;;;73.60;39.23;;;2.60;99.90;;;;;;6174401;23;20276;-86
2024/01/01 06:12:43;;;;;;;75.80;39.50;;;2.60;99.90;;;;;;6172871;23;20154;-86
2024/01/01 06:15:12;;;;;;;74.80;37.87;;;2.60;99.90;;;;;;6175751;23;20179;-84
2024/01/01 06:17:41;;;;;;;73.47;39.10;;;2.60;99.90;;;;;;6158052;23;20167;-86
2024/01/01 06:20:12;;;;;;;77.07;40.37;;;2.60;99.90;;;;;;6158326;23;20182;-85
2024/01/01 06:22:41;;;;;;;74.30;38.87;;;2.60;99.90;;;;;;6160274;23;20793;-86
2024/01/01 06:25:10;;;;;;;71.80;39.57;;;2.60;99.90;;;;;;6157162;23;20182;-84
2024/01/01 06:27:39;;;;;;;71.80;38.77;;;2.60;99.90;;;;;;6162359;23;20255;-84
2024/01/01 06:30:08;;;;;;;74.70;40.13;;;2.50;99.90;;;;;;6159266;23;20547;-85
2024/01/01 06:32:36;;;;;;;77.77;39.73;;;2.50;99.90;;;;;;6154973;23;20969;-85
2024/01/01 06:35:06;;;;;;;67.50;39.07;;;2.50;99.90;;;;;;6148846;23;20160;-85
2024/01/01 06:37:36;;;;;;;74.47;38.27;;;2.50;99.90;;;;;;6145605;23;20183;-87
2024/01/01 06:40:06;;;;;;;72.67;39.77;;;2.50;99.90;;;;;;6148389;23;20166;-83
2024/01/01 06:42:34;;;;;;;75.00;39.27;;;2.50;99.90;;;;;;6146519;23;20186;-85
2024/01/01 06:45:08;;;;;;;72.13;38.73;;;2.70;99.90;;;;;;6147790;23;20234;-85
2024/01/01 06:47:39;;;;;;;75.73;38.93;;;2.50;99.90;;;;;;6146056;23;20182;-85
2024/01/01 06:50:09;;;;;;;75.20;39.80;;;2.70;99.90;;;;;;6146918;23;20550;-86
2024/01/01 06:52:39;;;;;;;71.77;38.20;;;2.50;99.90;;;;;;6145556;23;20174;-86
2024/01/01 06:55:08;;;;;;;78.27;39.33;;;2.60;99.90;;;;;;6145183;23;20179;-84
2024/01/01 06:57:38;;;;;;;69.27;36.40;;;2.60;99.90;;;;;;6143955;23;20179;-85
2024/01/01 07:00:10;;;;;;;72.63;36.97;;;2.60;99.90;;;;;;6143975;23;20194;-85
2024/01/01 07:02:39;;;;;;;73.83;36.70;;;2.60;99.90;;;;;;6148536;23;20234;-86
2024/01/01 07:05:10;;;;;;;76.97;38.43;;;2.50;99.90;;;;;;6151797;23;20167;-85
2024/01/01 07:07:40;;;;;;;69.80;36.83;;;2.60;99.90;;;;;;6108553;23;20187;-86
2024/01/01 07:10:10;;;;;;;69.27;39.57;;;2.60;99.90;;;;;;6144706;23;20183;-86
2024/01/01 07:12:38;;;;;;;66.63;36.67;;;2.60;99.90;;;;;;6144876;23;20179;-85
2024/01/01 07:15:09;;;;;;;74.50;37.33;;;2.60;99.90;;;;;;6146101;23;21013;-84
2024/01/01 07:17:37;;;;;;;77.10;38.67;;;2.60;99.90;;;;;;6145259;23;20161;-86
2024/01/01 07:20:10;;;;;;;88.70;39.27;;;2.60;99.90;;;;;;6108355;23;20211;-86
2024/01/01 07:22:40;;;;;;;86.07;37.97;;;2.60;99.90;;;;;;6145672;23;20462;-86
2024/01/01 07:25:10;;;;;;;83.07;39.70;;;2.60;99.90;;;;;;6146572;23;20179;-85
2024/01/01 07:27:39;;;;;;;89.83;41.17;;;2.70;99.90;;;;;;6144221;23;20586;-85
2024/01/01 07:30:11;;;;;;;93.63;41.13;;;2.60;99.90;;;;;;6145974;23;20199;-85
2024/01/01 07:32:40;;;;;;;98.43;43.17;;;2.60;99.90;;;;;;6145172;23;20674;-85
2024/01/01 07:35:12;;;;;;;102.33;42.73;;;2.80;99.90;;;;;;6153232;23;20179;-84
2024/01/01 07:37:45;;;;;;;114.70;44.27;;;2.60;99.90;;;;;;6149248;23;20180;-86
2024/01/01 07:40:16;;;;;;;98.73;42.57;;;2.60;99.90;;;;;;6111539;23;20707;-85
2024/01/01 07:42:44;;;;;;;102.20;41.53;;;2.60;99.90;;;;;;6144874;23;20218;-86
2024/01/01 07:45:13;;;;;;;126.23;44.37;;;2.70;99.90;;;;;;6148468;23;20209;-86
2024/01/01 07:47:42;;;;;;;114.73;43.60;;;2.60;99.90;;;;;;6147524;23;20160;-84
2024/01/01 07:50:20;;;;;;;145.50;45.40;;;2.60;99.90;;;;;;6147776;23;20407;-86
2024/01/01 07:52:51;;;;;;;119.03;43.70;;;2.60;99.90;;;;;;6154179;23;20255;-87
2024/01/01 07:55:21;;;;;;;123.03;46.20;;;2.70;99.90;;;;;;6149600;23;20198;-85
2024/01/01 07:57:50;;;;;;;118.20;43.57;;;2.70;99.90;;;;;;6149477;23;20168;-86
2024/01/01 08:00:21;;;;;;;127.83;45.30;;;2.90;99.90;;;;;;6160893;23;20178;-86
2024/01/01 08:02:50;;;;;;;133.77;47.03;;;2.70;99.90;;;;;;6156821;23;20188;-86
2024/01/01 08:05:19;;;;;;;164.13;47.27;;;2.80;99.90;;;;;;6150914;23;20164;-86
2024/01/01 08:07:48;;;;;;;163.03;46.40;;;2.80;99.90;;;;;;6147513;23;20459;-85
2024/01/01 08:10:22;;;;;;;145.73;47.67;;;2.80;99.90;;;;;;6147035;23;20221;-87
2024/01/01 08:12:50;;;;;;;136.83;44.00;;;2.80;99.90;;;;;;6147955;23;20179;-83
2024/01/01 08:15:20;;;;;;;141.83;43.73;;;2.80;99.90;;;;;;6153527;23;20202;-85
2024/01/01 08:17:48;;;;;;;166.13;49.30;;;2.80;99.90;;;;;;6149250;23;20194;-85
2024/01/01 08:20:19;;;;;;;151.27;47.93;;;3.00;99.90;;;;;;6149492;23;20210;-84
2024/01/01 08:22:48;;;;;;;151.47;48.37;;;2.90;99.90;;;;;;6160982;23;20187;-84
2024/01/01 08:25:17;;;;;;;142.40;45.27;;;2.90;99.90;;;;;;6172944;23;20152;-85
2024/01/01 08:27:48;;;;;;;137.10;44.70;;;2.90;99.90;;;;;;6173909;23;20147;-86
2024/01/01 08:30:17;;;;;;;142.57;46.50;;;2.90;99.90;;;;;;6174900;23;20235;-85
2024/01/01 08:32:46;;;;;;;117.27;41.77;;;2.90;99.90;;;;;;6168113;23;20218;-85
2024/01/01 08:35:16;;;;;;;113.47;43.30;;;2.90;99.90;;;;;;6151110;23;20175;-83
2024/01/01 08:37:47;;;;;;;116.07;44.47;;;3.00;99.90;;;;;;6151131;23;20498;-85
2024/01/01 08:40:17;;;;;;;126.90;43.37;;;2.90;99.90;;;;;;6153315;23;20167;-84
2024/01/01 08:42:48;;;;;;;102.70;42.07;;;2.70;99.90;;;;;;6164527;23;20195;-86
2024/01/01 08:45:19;;;;;;;109.17;43.00;;;3.00;99.90;;;;;;6170541;23;20175;-86
2024/01/01 08:47:47;;;;;;;105.77;42.87;;;3.00;99.90;;;;;;6153955;23;20176;-86
2024/01/01 08:50:19;;;;;;;104.50;39.50;;;2.90;99.90;;;;;;6149516;23;20610;-85
2024/01/01 08:52:48;;;;;;;109.47;42.60;;;3.00;99.90;;;;;;6148799;23;20243;-84
2024/01/01 08:55:17;;;;;;;95.43;40.90;;;2.80;99.90;;;;;;6150174;23;20230;-84
2024/01/01 08:57:47;;;;;;;94.03;42.00;;;3.00;99.90;;;;;;6149999;23;20544;-86
2024/01/01 09:00:17;;;;;;;103.50;41.43;;;3.00;99.90;;;;;;6152754;23;20175;-85
2024/01/01 09:02:47;;;;;;;100.23;39.67;;;2.90;99.90;;;;;;6115567;23;20183;-84
2024/01/01 09:05:30;;;;;;;97.97;41.43;;;3.00;99.90;;;;;;6166326;23;20175;-83
2024/01/01 09:08:05;;;;;;;89.40;37.80;;;3.00;99.90;;;;;;6126921;23;20189;-84
2024/01/01 09:10:35;;;;;;;99.63;39.00;;;3.00;99.90;;;;;;6158935;23;20180;-84
2024/01/01 09:13:05;;;;;;;92.43;39.93;;;3.00;99.90;;;;;;6157916;23;20168;-85
2024/01/01 09:15:37;;;;;;;100.33;41.03;;;3.00;99.90;;;;;;6162991;23;20393;-85
2024/01/01 09:18:08;;;;;;;103.33;42.00;;;3.00;99.90;;;;;;6161466;23;20159;-83
2024/01/01 09:20:41;;;;;;;108.10;42.07;;;3.00;99.90;;;;;;6155193;23;20171;-84
2024/01/01 09:23:10;;;;;;;95.93;40.93;;;3.00;99.90;;;;;;6161206;23;20175;-85
2024/01/01 09:25:40;;;;;;;100.07;42.63;;;2.90;99.90;;;;;;6157381;23;20226;-85
2024/01/01 09:28:10;;;;;;;108.93;43.23;;;3.10;99.90;;;;;;6161893;23;20184;-83
2024/01/01 09:30:40;;;;;;;112.63;42.40;;;3.00;99.90;;;;;;6158598;23;20188;-84
2024/01/01 09:33:08;;;;;;;85.23;39.10;;;3.20;99.90;;;;;;6156211;23;20191;-86
2024/01/01 09:35:37;;;;;;;102.87;41.43;;;3.10;99.90;;;;;;6157255;23;20178;-84
2024/01/01 09:38:18;;;;;;;91.17;39.27;;;2.90;99.90;;;;;;6157999;23;20187;-85
2024/01/01 09:40:53;;;;;;;94.60;40.47;;;3.00;99.90;;;;;;6156088;23;20195;-85
2024/01/01 09:43:33;;;;;;;86.83;37.23;;;3.10;99.90;;;;;;6157650;23;20195;-85
2024/01/01 09:46:02;;;;;;;89.97;38.00;;;3.00;99.90;;;;;;6156040;23;20171;-86
2024/01/01 09:48:31;;;;;;;78.17;37.83;;;3.20;99.90;;;;;;6161322;23;20174;-83
2024/01/01 09:51:03;;;;;;;80.53;37.43;;;3.10;99.90;;;;;;6160028;23;20210;-83
2024/01/01 09:53:32;;;;;;;87.00;37.57;;;3.10;99.90;;;;;;6158733;23;20179;-85
2024/01/01 09:56:01;;;;;;;76.97;35.17;;;3.20;99.90;;;;;;6122821;23;20179;-86
2024/01/01 09:58:42;;;;;;;76.30;34.87;;;3.10;99.90;;;;;;6158975;23;20183;-84
2024/01/01 10:01:15;;;;;;;70.43;33.10;;;3.30;99.90;;;;;;6160903;23;20178;-83
2024/01/01 10:03:44;;;;;;;66.77;34.70;;;3.20;99.90;;;;;;6158796;23;20210;-86
2024/01/01 10:06:19;;;;;;;65.17;32.53;;;3.40;99.90;;;;;;6120682;23;20175;-84
2024/01/01 10:08:47;;;;;;;65.33;33.07;;;3.20;99.90;;;;;;6154250;23;20265;-84
2024/01/01 10:11:20;;;;;;;67.57;32.80;;;3.20;99.90;;;;;;6155949;23;20529;-84
2024/01/01 10:13:52;;;;;;;63.40;33.37;;;3.40;99.90;;;;;;6156586;23;20670;-88
2024/01/01 10:16:26;;;;;;;61.67;32.90;;;3.30;99.90;;;;;;6149228;23;20525;-85
2024/01/01 10:19:01;;;;;;;66.00;33.30;;;3.40;99.90;;;;;;6145343;23;20207;-84
2024/01/01 10:21:32;;;;;;;63.60;33.23;;;3.30;99.90;;;;;;6156159;23;20160;-84
2024/01/01 10:24:13;;;;;;;64.77;32.30;;;3.40;99.90;;;;;;6153826;23;20238;-85
2024/01/01 10:27:03;;;;;;;60.67;32.97;;;3.40;99.90;;;;;;6151923;23;20179;-85
2024/01/01 10:29:35;;;;;;;58.50;32.20;;;3.40;99.90;;;;;;6157496;23;20179;-86
2024/01/01 10:32:05;;;;;;;63.63;33.53;;;3.50;99.90;;;;;;6155985;23;20207;-82
2024/01/01 10:34:40;;;;;;;59.97;32.13;;;3.50;99.90;;;;;;6122948;23;20179;-85
2024/01/01 10:37:15;;;;;;;67.00;33.23;;;3.40;99.90;;;;;;6158633;23;20206;-87
2024/01/01 10:39:45;;;;;;;66.83;34.60;;;3.50;99.90;;;;;;6158516;23;20178;-84
2024/01/01 10:42:33;;;;;;;63.17;33.77;;;3.60;99.90;;;;;;6157294;23;20183;-86
2024/01/01 10:45:14;;;;;;;56.30;32.30;;;3.50;99.90;;;;;;6152996;23;20207;-86
2024/01/01 10:47:52;;;;;;;57.90;31.47;;;3.50;99.90;;;;;;6150162;23;20168;-85
2024/01/01 10:50:28;;;;;;;51.77;30.60;;;3.50;99.90;;;;;;6153363;23;20169;-84
2024/01/01 10:53:08;;;;;;;51.37;28.80;;;3.60;99.90;;;;;;6146652;23;20201;-87
2024/01/01 10:56:11;;;;;;;50.90;29.10;;;3.60;99.90;;;;;;6153874;23;20215;-83
2024/01/01 10:58:55;;;;;;;56.43;30.07;;;3.50;99.90;;;;;;6162617;23;20171;-85
2024/01/01 11:01:29;;;;;;;56.63;30.73;;;3.50;99.90;;;;;;6124336;23;20185;-84
2024/01/01 11:03:58;;;;;;;58.10;31.97;;;3.60;99.90;;;;;;6169972;23;20235;-88
2024/01/01 11:06:35;;;;;;;63.40;32.90;;;3.70;99.90;;;;;;6173926;23;20179;-85
2024/01/01 11:09:34;;;;;;;62.17;32.47;;;3.50;99.90;;;;;;6171710;23;20246;-85
2024/01/01 11:12:05;;;;;;;60.57;32.17;;;3.50;99.90;;;;;;6081183;23;20319;-83
2024/01/01 11:14:38;;;;;;;61.93;33.57;;;3.50;99.90;;;;;;6155743;23;20562;-87
2024/01/01 11:17:09;;;;;;;56.77;33.60;;;3.60;99.90;;;;;;6170710;23;20698;-84
2024/01/01 11:19:41;;;;;;;63.33;35.00;;;3.60;99.90;;;;;;6137177;23;20184;-86
2024/01/01 11:22:33;;;;;;;63.77;33.37;;;3.80;99.90;;;;;;6172143;23;20250;-86
2024/01/01 11:25:04;;;;;;;60.17;32.67;;;3.70;99.90;;;;;;6170132;23;20179;-85
2024/01/01 11:27:34;;;;;;;55.67;31.43;;;3.80;99.90;;;;;;6171546;23;20187;-85
2024/01/01 11:30:05;;;;;;;53.10;31.13;;;3.80;99.90;;;;;;6170626;23;20179;-85
2024/01/01 11:32:36;;;;;;;55.43;31.07;;;3.80;99.90;;;;;;6172742;23;20188;-86
2024/01/01 11:35:10;;;;;;;52.70;31.53;;;3.80;99.90;;;;;;6165144;23;20547;-84
2024/01/01 11:37:41;;;;;;;52.27;30.53;;;3.80;99.90;;;;;;6169994;23;20175;-87
2024/01/01 11:40:14;;;;;;;58.20;31.87;;;3.90;99.90;;;;;;6168569;23;20179;-85
2024/01/01 11:42:42;;;;;;;54.87;32.63;;;3.90;99.90;;;;;;6166125;23;20261;-88
2024/01/01 11:45:12;;;;;;;60.03;32.67;;;3.90;99.90;;;;;;6164226;23;20184;-87
2024/01/01 11:47:43;;;;;;;45.20;29.30;;;3.90;99.90;;;;;;6162866;23;20575;-87
2024/01/01 11:50:14;;;;;;;48.73;27.90;;;4.00;99.90;;;;;;6163423;23;20169;-86
2024/01/01 11:52:43;;;;;;;43.37;27.87;;;3.90;99.90;;;;;;6166406;23;20197;-86
2024/01/01 11:55:13;;;;;;;47.33;27.70;;;3.90;99.90;;;;;;6163570;23;20682;-86
2024/01/01 11:57:42;;;;;;;43.67;27.20;;;4.00;99.90;;;;;;6165154;23;20271;-86
2024/01/01 12:00:18;;;;;;;43.00;28.10;;;4.20;99.90;;;;;;6166197;23;20178;-86
2024/01/01 12:02:51;;;;;;;41.77;27.50;;;3.80;99.90;;;;;;6172334;23;20240;-86
2024/01/01 12:05:20;;;;;;;42.47;26.17;;;4.20;99.90;;;;;;6134581;23;20552;-86
2024/01/01 12:07:49;;;;;;;41.50;26.17;;;4.00;99.90;;;;;;6174259;23;20180;-85
2024/01/01 12:10:19;;;;;;;40.13;26.10;;;4.00;99.90;;;;;;6135722;23;20232;-84
2024/01/01 12:12:48;;;;;;;40.97;26.20;;;3.90;99.90;;;;;;6179486;23;20188;-85
2024/01/01 12:15:21;;;;;;;40.23;26.43;;;4.00;99.90;;;;;;6178237;23;20175;-86
2024/01/01 12:17:52;;;;;;;43.93;25.90;;;3.90;99.90;;;;;;6161538;23;20180;-86
2024/01/01 12:20:24;;;;;;;41.83;26.53;;;4.10;99.90;;;;;;6168214;23;20688;-83
2024/01/01 12:22:55;;;;;;;42.83;26.23;;;3.90;99.90;;;;;;6165587;23;20171;-84
2024/01/01 12:25:24;;;;;;;36.87;24.77;;;3.90;99.90;;;;;;6166461;23;20171;-89
2024/01/01 12:28:04;;;;;;;38.67;25.00;;;3.90;99.90;;;;;;6168269;23;20227;-84
2024/01/01 12:30:35;;;;;;;42.67;25.70;;;3.90;99.90;;;;;;6165362;23;20175;-86
2024/01/01 12:33:06;;;;;;;39.90;24.73;;;3.80;99.90;;;;;;6129769;23;20199;-86
2024/01/01 12:35:39;;;;;;;41.07;26.23;;;3.80;99.90;;;;;;6128859;23;20233;-83
2024/01/01 12:38:08;;;;;;;39.13;25.10;;;3.80;99.90;;;;;;6165777;23;20183;-87
2024/01/01 12:40:39;;;;;;;37.00;24.20;;;3.80;99.90;;;;;;6163831;23;20171;-84
2024/01/01 12:43:09;;;;;;;36.13;24.20;;;3.80;99.90;;;;;;6163532;23;20159;-86
2024/01/01 12:45:41;;;;;;;38.40;25.40;;;3.80;99.90;;;;;;6165296;23;20160;-86
2024/01/01 12:48:43;;;;;;;37.77;25.10;;;3.80;99.90;;;;;;6171818;23;20203;-86
2024/01/01 12:51:21;;;;;;;38.47;24.57;;;4.10;99.90;;;;;;6172149;23;20191;-84
2024/01/01 12:53:54;;;;;;;42.50;25.37;;;3.90;99.90;;;;;;6165956;23;20205;-85